createdAt,value
2017-07-18T00:01:45.301Z,94678.23
2017-07-18T00:04:13.064Z,94679.99
2017-07-18T00:06:40.774Z,94682.92
2017-07-18T00:09:08.477Z,94677.87
2017-07-18T00:11:36.213Z,94682.60
2017-07-18T00:14:03.956Z,94680.21
2017-07-18T00:16:31.736Z,94685.02
2017-07-18T00:18:59.537Z,94684.06
2017-07-18T00:21:27.238Z,94682.57
2017-07-18T00:23:54.946Z,94685.69
2017-07-18T00:26:22.715Z,94684.44
2017-07-18T00:28:50.493Z,94682.05
2017-07-18T00:31:18.298Z,94683.13
2017-07-18T00:33:46.700Z,94686.23
2017-07-18T00:36:14.425Z,94678.08
2017-07-18T00:38:42.157Z,94676.35
2017-07-18T00:41:10.861Z,94681.84
2017-07-18T00:43:38.637Z,94684.12
2017-07-18T00:46:06.550Z,94676.88
2017-07-18T00:48:34.443Z,94685.05
2017-07-18T00:51:02.252Z,94682.33
2017-07-18T00:53:30.006Z,94680.37
2017-07-18T00:55:58.696Z,94682.98
2017-07-18T00:58:26.476Z,94675.42
2017-07-18T01:00:54.188Z,94684.07
2017-07-18T01:03:21.995Z,94680.50
2017-07-18T01:05:50.912Z,94683.86
2017-07-18T01:08:18.796Z,94680.27
2017-07-18T01:10:46.492Z,94685.59
2017-07-18T01:13:14.213Z,94684.09
2017-07-18T01:15:41.953Z,94682.30
2017-07-18T01:18:09.667Z,94683.89
2017-07-18T01:20:37.411Z,94677.52
2017-07-18T01:23:05.155Z,94677.91
2017-07-18T01:25:32.949Z,94677.28
2017-07-18T01:28:00.637Z,94677.71
2017-07-18T01:30:28.426Z,94678.35
2017-07-18T01:32:56.123Z,94670.31
2017-07-18T01:35:23.826Z,94677.08
2017-07-18T01:37:51.562Z,94674.54
2017-07-18T01:40:21.091Z,94677.05
2017-07-18T01:42:48.833Z,94674.70
2017-07-18T01:45:16.574Z,94673.91
2017-07-18T01:47:45.386Z,94671.16
2017-07-18T01:50:13.151Z,94668.82
2017-07-18T01:52:40.874Z,94663.17
2017-07-18T01:55:08.648Z,94656.48
2017-07-18T01:57:36.349Z,94666.79
2017-07-18T02:00:04.097Z,94666.52
2017-07-18T02:02:32.664Z,94663.58
2017-07-18T02:05:00.376Z,94668.02
2017-07-18T02:07:28.086Z,94663.58
2017-07-18T02:09:55.903Z,94663.22
2017-07-18T02:12:23.789Z,94665.69
2017-07-18T02:14:51.517Z,94658.53
2017-07-18T02:17:19.337Z,94656.14
2017-07-18T02:19:47.106Z,94655.11
2017-07-18T02:22:14.902Z,94658.13
2017-07-18T02:24:42.836Z,94656.45
2017-07-18T02:27:11.362Z,94655.61
2017-07-18T02:29:39.350Z,94658.95
2017-07-18T02:32:07.056Z,94649.92
2017-07-18T02:34:34.897Z,94653.59
2017-07-18T02:37:02.580Z,94649.84
2017-07-18T02:39:30.281Z,94652.37
2017-07-18T02:41:58.031Z,94653.73
2017-07-18T02:44:26.783Z,94652.90
2017-07-18T02:46:54.622Z,94651.73
2017-07-18T02:49:22.323Z,94651.69
2017-07-18T02:51:50.119Z,94650.22
2017-07-18T02:54:18.726Z,94653.19
2017-07-18T02:56:46.684Z,94650.93
2017-07-18T02:59:14.413Z,94649.35
2017-07-18T03:01:42.186Z,94649.74
2017-07-18T03:04:09.902Z,94654.64
2017-07-18T03:06:37.606Z,94653.11
2017-07-18T03:09:05.375Z,94661.36
2017-07-18T03:11:33.073Z,94654.44
2017-07-18T03:14:02.018Z,94653.95
2017-07-18T03:16:30.815Z,94657.08
2017-07-18T03:18:58.569Z,94659.63
2017-07-18T03:21:26.354Z,94649.22
2017-07-18T03:24:05.013Z,94663.34
2017-07-18T03:26:32.782Z,94661.31
2017-07-18T03:29:00.940Z,94654.67
2017-07-18T03:31:28.683Z,94664.25
2017-07-18T03:33:56.441Z,94663.09
2017-07-18T03:36:24.207Z,94668.70
2017-07-18T03:38:51.902Z,94674.63
2017-07-18T03:41:19.588Z,94673.59
2017-07-18T03:43:47.341Z,94669.76
2017-07-18T03:46:15.067Z,94677.29
2017-07-18T03:48:42.773Z,94677.38
2017-07-18T03:51:10.507Z,94671.44
2017-07-18T03:53:38.184Z,94672.13
2017-07-18T03:56:06.044Z,94674.01
2017-07-18T03:58:33.791Z,94676.29
2017-07-18T04:01:01.504Z,94668.33
2017-07-18T04:03:29.195Z,94673.09
2017-07-18T04:05:56.988Z,94671.78
2017-07-18T04:08:24.773Z,94667.81
2017-07-18T04:10:52.604Z,94676.79
2017-07-18T04:13:20.302Z,94668.66
2017-07-18T04:15:48.031Z,94671.27
2017-07-18T04:18:15.805Z,94674.07
2017-07-18T04:20:43.510Z,94675.33
2017-07-18T04:23:11.274Z,94671.63
2017-07-18T04:25:38.978Z,94670.55
2017-07-18T04:28:06.703Z,94671.85
2017-07-18T04:30:34.641Z,94675.30
2017-07-18T04:33:02.378Z,94670.92
2017-07-18T04:35:30.105Z,94663.70
2017-07-18T04:37:57.886Z,94671.47
2017-07-18T04:40:25.694Z,94669.06
2017-07-18T04:42:53.451Z,94668.44
2017-07-18T04:45:21.271Z,94669.57
2017-07-18T04:47:48.987Z,94672.03
2017-07-18T04:50:16.930Z,94668.68
2017-07-18T04:52:44.718Z,94674.41
2017-07-18T04:55:12.500Z,94669.16
2017-07-18T04:57:40.299Z,94665.98
2017-07-18T05:00:08.016Z,94666.45
2017-07-18T05:02:35.771Z,94665.03
2017-07-18T05:05:03.558Z,94665.84
2017-07-18T05:07:31.357Z,94670.36
2017-07-18T05:09:59.057Z,94664.57
2017-07-18T05:12:26.813Z,94656.36
2017-07-18T05:14:54.522Z,94654.81
2017-07-18T05:17:22.632Z,94654.44
2017-07-18T05:19:50.352Z,94654.78
2017-07-18T05:22:18.182Z,94654.80
2017-07-18T05:24:46.120Z,94652.17
2017-07-18T05:27:13.843Z,94647.96
2017-07-18T05:29:41.637Z,94650.19
2017-07-18T05:32:09.340Z,94655.97
2017-07-18T05:34:37.091Z,94655.41
2017-07-18T05:37:04.844Z,94651.29
2017-07-18T05:39:32.642Z,94649.98
2017-07-18T05:42:00.347Z,94647.65
2017-07-18T05:44:28.123Z,94645.13
2017-07-18T05:46:55.818Z,94638.11
2017-07-18T05:49:23.530Z,94648.30
2017-07-18T05:51:51.349Z,94647.27
2017-07-18T05:54:19.180Z,94644.76
2017-07-18T05:56:46.951Z,94643.37
2017-07-18T05:59:15.629Z,94645.59
2017-07-18T06:01:43.430Z,94633.09
2017-07-18T06:04:11.169Z,94644.09
2017-07-18T06:06:38.885Z,94641.33
2017-07-18T06:09:06.649Z,94635.16
2017-07-18T06:11:34.416Z,94631.88
2017-07-18T06:14:02.152Z,94625.81
2017-07-18T06:16:29.925Z,94626.84
2017-07-18T06:18:57.643Z,94619.49
2017-07-18T06:21:25.497Z,94617.98
2017-07-18T06:23:53.230Z,94621.72
2017-07-18T06:26:20.920Z,94620.13
2017-07-18T06:28:48.695Z,94617.73
2017-07-18T06:31:16.434Z,94616.11
2017-07-18T06:33:44.211Z,94614.30
2017-07-18T06:36:11.921Z,94611.13
2017-07-18T06:38:39.706Z,94613.97
2017-07-18T06:41:07.421Z,94612.63
2017-07-18T06:43:35.119Z,94608.23
2017-07-18T06:46:02.876Z,94605.08
2017-07-18T06:48:30.597Z,94597.13
2017-07-18T06:50:58.361Z,94597.97
2017-07-18T06:53:26.155Z,94597.83
2017-07-18T06:55:54.029Z,94596.55
2017-07-18T06:58:21.731Z,94591.63
2017-07-18T07:00:49.449Z,94591.90
2017-07-18T07:03:17.217Z,94588.20
2017-07-18T07:05:44.915Z,94585.94
2017-07-18T07:08:12.652Z,94581.26
2017-07-18T07:10:40.422Z,94581.18
2017-07-18T07:13:08.122Z,94566.96
2017-07-18T07:15:35.863Z,94573.63
2017-07-18T07:18:04.012Z,94572.77
2017-07-18T07:20:31.791Z,94568.86
2017-07-18T07:22:59.597Z,94568.95
2017-07-18T07:25:27.301Z,94563.53
2017-07-18T07:27:55.000Z,94564.14
2017-07-18T07:30:22.778Z,94564.16
2017-07-18T07:32:50.540Z,94556.05
2017-07-18T07:35:18.230Z,94556.41
2017-07-18T07:37:45.998Z,94556.45
2017-07-18T07:40:13.686Z,94554.13
2017-07-18T07:42:41.415Z,94544.56
2017-07-18T07:45:09.190Z,94551.19
2017-07-18T07:47:37.018Z,94549.18
2017-07-18T07:50:04.761Z,94543.59
2017-07-18T07:52:32.770Z,94545.13
2017-07-18T07:55:01.547Z,94538.22
2017-07-18T07:57:29.294Z,94538.95
2017-07-18T07:59:57.132Z,94541.88
2017-07-18T08:02:24.972Z,94534.94
2017-07-18T08:04:52.800Z,94540.45
2017-07-18T08:07:20.596Z,94530.30
2017-07-18T08:09:48.318Z,94526.68
2017-07-18T08:12:16.036Z,94527.03
2017-07-18T08:14:43.835Z,94524.59
2017-07-18T08:17:11.604Z,94516.59
2017-07-18T08:19:39.369Z,94519.08
2017-07-18T08:22:07.270Z,94509.23
2017-07-18T08:24:34.966Z,94511.92
2017-07-18T08:27:02.680Z,94512.66
2017-07-18T08:29:30.540Z,94513.25
2017-07-18T08:31:58.296Z,94508.55
2017-07-18T08:34:25.994Z,94505.09
2017-07-18T08:36:53.740Z,94500.65
2017-07-18T08:39:21.507Z,94508.21
2017-07-18T08:41:49.261Z,94501.55
2017-07-18T08:44:17.022Z,94503.45
2017-07-18T08:46:44.866Z,94502.23
2017-07-18T08:49:12.661Z,94502.31
2017-07-18T08:51:40.434Z,94498.81
2017-07-18T08:54:08.237Z,94498.73
2017-07-18T08:56:35.953Z,94493.48
2017-07-18T08:59:03.668Z,94497.25
2017-07-18T09:01:31.438Z,94502.77
2017-07-18T09:03:59.138Z,94503.38
2017-07-18T09:06:26.850Z,94505.95
2017-07-18T09:08:54.581Z,94501.50
2017-07-18T09:11:22.288Z,94500.25
2017-07-18T09:13:50.157Z,94497.62
2017-07-18T09:16:17.922Z,94494.33
2017-07-18T09:18:45.676Z,94490.02
2017-07-18T09:21:13.423Z,94486.11
2017-07-18T09:23:41.184Z,94483.80
2017-07-18T09:26:08.889Z,94474.13
2017-07-18T09:28:36.677Z,94473.47
2017-07-18T09:31:21.959Z,94473.98
2017-07-18T09:34:07.152Z,94469.28
2017-07-18T09:36:34.879Z,94466.59
2017-07-18T09:39:02.563Z,94461.38
2017-07-18T09:41:30.281Z,94454.97
2017-07-18T09:43:57.978Z,94455.34
2017-07-18T09:46:25.776Z,94452.70
2017-07-18T09:48:53.473Z,94446.72
2017-07-18T09:51:21.267Z,94444.45
2017-07-18T09:53:48.980Z,94443.45
2017-07-18T09:56:16.754Z,94435.34
2017-07-18T09:58:44.516Z,94428.88
2017-07-18T10:01:12.909Z,94435.05
2017-07-18T10:03:40.748Z,94432.58
2017-07-18T10:06:08.545Z,94432.22
2017-07-18T10:08:36.397Z,94425.92
2017-07-18T10:11:04.230Z,94431.61
2017-07-18T10:13:31.988Z,94428.80
2017-07-18T10:16:00.606Z,94425.09
2017-07-18T10:18:28.417Z,94420.79
2017-07-18T10:20:56.145Z,94423.70
2017-07-18T10:23:23.865Z,94417.11
2017-07-18T10:25:51.703Z,94416.59
2017-07-18T10:28:19.406Z,94415.97
2017-07-18T10:30:47.096Z,94413.18
2017-07-18T10:33:15.167Z,94412.00
2017-07-18T10:35:43.430Z,94403.52
2017-07-18T10:38:11.146Z,94402.86
2017-07-18T10:40:39.198Z,94402.93
2017-07-18T10:44:26.895Z,94398.36
2017-07-18T10:46:54.672Z,94392.98
2017-07-18T10:49:22.393Z,94390.40
2017-07-18T10:51:50.167Z,94388.24
2017-07-18T10:54:17.939Z,94385.59
2017-07-18T10:56:45.691Z,94386.86
2017-07-18T10:59:13.456Z,94386.47
2017-07-18T11:01:41.213Z,94383.24
2017-07-18T11:04:08.905Z,94385.34
2017-07-18T11:06:36.811Z,94380.47
2017-07-18T11:09:04.661Z,94373.43
2017-07-18T11:11:32.366Z,94370.16
2017-07-18T11:14:00.138Z,94373.43
2017-07-18T11:16:27.844Z,94378.84
2017-07-18T11:21:30.019Z,94365.56
2017-07-18T11:23:57.779Z,94367.29
2017-07-18T11:26:25.625Z,94360.54
2017-07-18T11:28:53.381Z,94361.24
2017-07-18T11:31:21.168Z,94361.50
2017-07-18T11:33:48.887Z,94356.62
2017-07-18T11:36:16.711Z,94352.82
2017-07-18T11:38:44.420Z,94354.95
2017-07-18T11:41:12.134Z,94350.39
2017-07-18T11:43:39.870Z,94347.17
2017-07-18T11:46:07.612Z,94345.87
2017-07-18T11:48:35.386Z,94342.47
2017-07-18T11:51:03.193Z,94340.90
2017-07-18T11:53:31.013Z,94335.28
2017-07-18T11:55:58.717Z,94334.42
2017-07-18T11:58:26.433Z,94330.65
2017-07-18T12:00:54.216Z,94330.37
2017-07-18T12:03:21.920Z,94328.91
2017-07-18T12:05:49.690Z,94325.61
2017-07-18T12:08:17.401Z,94325.05
2017-07-18T12:10:45.165Z,94323.16
2017-07-18T12:13:12.895Z,94315.08
2017-07-18T12:15:40.601Z,94314.28
2017-07-18T12:18:08.452Z,94317.33
2017-07-18T12:20:36.170Z,94305.06
2017-07-18T12:23:03.946Z,94312.80
2017-07-18T12:25:31.758Z,94305.99
2017-07-18T12:27:59.632Z,94303.36
2017-07-18T12:30:27.327Z,94311.55
2017-07-18T12:32:55.185Z,94300.70
2017-07-18T12:35:22.944Z,94298.95
2017-07-18T12:37:50.825Z,94296.42
2017-07-18T12:40:18.654Z,94296.88
2017-07-18T12:42:47.180Z,94289.28
2017-07-18T12:45:14.914Z,94291.89
2017-07-18T12:47:42.769Z,94289.92
2017-07-18T12:50:10.523Z,94283.33
2017-07-18T12:52:38.345Z,94285.63
2017-07-18T12:55:06.119Z,94286.07
2017-07-18T12:57:33.915Z,94281.91
2017-07-18T13:00:02.738Z,94274.56
2017-07-18T13:02:30.512Z,94270.11
2017-07-18T13:04:58.337Z,94275.37
2017-07-18T13:07:26.136Z,94270.09
2017-07-18T13:09:53.947Z,94265.70
2017-07-18T13:12:21.736Z,94265.80
2017-07-18T13:14:49.596Z,94254.89
2017-07-18T13:17:17.425Z,94255.80
2017-07-18T13:19:45.279Z,94250.99
2017-07-18T13:22:12.992Z,94249.26
2017-07-18T13:24:40.777Z,94249.64
2017-07-18T13:27:08.564Z,94251.86
2017-07-18T13:29:36.271Z,94246.09
2017-07-18T13:32:04.156Z,94251.04
2017-07-18T13:34:31.862Z,94247.55
2017-07-18T13:36:59.593Z,94238.77
2017-07-18T13:39:27.347Z,94239.82
2017-07-18T13:41:55.129Z,94233.76
2017-07-18T13:44:23.070Z,94231.88
2017-07-18T13:46:50.843Z,94234.91
2017-07-18T13:49:18.772Z,94229.68
2017-07-18T13:51:46.524Z,94230.25
2017-07-18T13:54:14.271Z,94224.22
2017-07-18T13:56:42.045Z,94223.16
2017-07-18T13:59:09.798Z,94222.39
2017-07-18T14:01:37.557Z,94213.04
2017-07-18T14:04:05.344Z,94212.84
2017-07-18T14:06:33.110Z,94215.80
2017-07-18T14:09:00.944Z,94216.70
2017-07-18T14:11:28.827Z,94214.11
2017-07-18T14:13:56.596Z,94220.05
2017-07-18T14:16:24.346Z,94215.42
2017-07-18T14:18:52.023Z,94212.62
2017-07-18T14:21:19.770Z,94206.84
2017-07-18T14:23:47.449Z,94205.53
2017-07-18T14:26:15.189Z,94204.92
2017-07-18T14:28:42.961Z,94206.88
2017-07-18T14:31:10.734Z,94200.52
2017-07-18T14:33:38.451Z,94199.27
2017-07-18T14:36:06.232Z,94198.52
2017-07-18T14:38:33.935Z,94191.34
2017-07-18T14:41:01.674Z,94184.73
2017-07-18T14:43:29.431Z,94191.80
2017-07-18T14:45:57.230Z,94192.58
2017-07-18T14:48:24.920Z,94189.95
2017-07-18T14:50:52.698Z,94189.52
2017-07-18T14:53:20.456Z,94183.09
2017-07-18T14:55:48.199Z,94181.70
2017-07-18T14:58:16.223Z,94179.05
2017-07-18T15:00:43.949Z,94175.95
2017-07-18T15:03:11.715Z,94176.18
2017-07-18T15:05:39.424Z,94183.94
2017-07-18T15:08:07.208Z,94181.35
2017-07-18T15:10:34.909Z,94180.80
2017-07-18T15:13:02.613Z,94178.00
2017-07-18T15:15:30.402Z,94174.54
2017-07-18T15:17:58.147Z,94175.56
2017-07-18T15:20:25.908Z,94177.11
2017-07-18T15:22:53.795Z,94181.03
2017-07-18T15:25:21.590Z,94184.95
2017-07-18T15:27:49.370Z,94187.91
2017-07-18T15:30:17.874Z,94189.09
2017-07-18T15:32:45.595Z,94194.42
2017-07-18T15:35:13.327Z,94186.01
2017-07-18T15:37:41.063Z,94188.39
2017-07-18T15:40:08.943Z,94185.45
2017-07-18T15:42:36.696Z,94189.88
2017-07-18T15:45:04.596Z,94187.99
2017-07-18T15:47:32.789Z,94187.05
2017-07-18T15:50:00.546Z,94182.48
2017-07-18T15:52:28.303Z,94178.61
2017-07-18T15:54:56.110Z,94178.02
2017-07-18T15:57:23.841Z,94190.73
2017-07-18T15:59:51.607Z,94189.33
2017-07-18T16:02:19.285Z,94190.95
2017-07-18T16:04:47.060Z,94198.51
2017-07-18T16:07:14.752Z,94204.41
2017-07-18T16:09:42.599Z,94194.61
2017-07-18T16:12:10.315Z,94192.67
2017-07-18T16:14:38.095Z,94194.81
2017-07-18T16:17:05.872Z,94199.34
2017-07-18T16:19:33.659Z,94202.95
2017-07-18T16:22:01.984Z,94211.97
2017-07-18T16:24:30.856Z,94218.36
2017-07-18T16:26:58.652Z,94222.63
2017-07-18T16:29:26.466Z,94222.36
2017-07-18T16:31:54.341Z,94231.22
2017-07-18T16:34:22.142Z,94236.48
2017-07-18T16:36:49.855Z,94244.95
2017-07-18T16:39:17.648Z,94264.38
2017-07-18T16:41:45.377Z,94278.65
2017-07-18T16:44:13.142Z,94298.50
2017-07-18T16:46:40.891Z,94308.54
2017-07-18T16:49:08.694Z,94326.85
2017-07-18T16:51:36.421Z,94334.11
2017-07-18T16:54:04.258Z,94337.58
2017-07-18T16:56:31.978Z,94360.59
2017-07-18T16:58:59.700Z,94392.77
2017-07-18T17:01:27.473Z,94398.89
2017-07-18T17:03:55.238Z,94403.41
2017-07-18T17:06:23.052Z,94408.42
2017-07-18T17:08:52.008Z,94407.67
2017-07-18T17:11:19.816Z,94390.66
2017-07-18T17:13:47.607Z,94382.83
2017-07-18T17:16:15.306Z,94372.28
2017-07-18T17:18:43.056Z,94377.33
2017-07-18T17:21:10.785Z,94375.12
2017-07-18T17:23:38.551Z,94386.82
2017-07-18T17:26:06.297Z,94401.98
2017-07-18T17:28:34.022Z,94404.30
2017-07-18T17:31:01.907Z,94400.93
2017-07-18T17:33:29.624Z,94401.00
2017-07-18T17:35:58.462Z,94407.59
2017-07-18T17:38:26.361Z,94411.16
2017-07-18T17:40:54.140Z,94416.28
2017-07-18T17:43:21.922Z,94425.34
2017-07-18T17:45:49.717Z,94436.83
2017-07-18T17:48:17.548Z,94438.24
2017-07-18T17:50:45.246Z,94442.33
2017-07-18T17:53:13.076Z,94446.59
2017-07-18T17:55:40.893Z,94445.75
2017-07-18T17:58:08.661Z,94448.07
2017-07-18T18:00:36.478Z,94446.68
2017-07-18T18:03:04.257Z,94451.72
2017-07-18T18:05:32.362Z,94457.67
2017-07-18T18:08:00.195Z,94452.73
2017-07-18T18:10:28.112Z,94453.27
2017-07-18T18:12:55.852Z,94449.88
2017-07-18T18:15:23.787Z,94458.45
2017-07-18T18:17:51.627Z,94448.05
2017-07-18T18:20:19.529Z,94439.00
2017-07-18T18:22:48.362Z,94441.10
2017-07-18T18:25:17.495Z,94445.55
2017-07-18T18:27:45.413Z,94440.69
2017-07-18T18:30:14.006Z,94434.80
2017-07-18T18:32:42.285Z,94426.40
2017-07-18T18:35:10.093Z,94430.63
2017-07-18T18:37:37.910Z,94433.88
2017-07-18T18:40:05.765Z,94425.78
2017-07-18T18:42:33.825Z,94426.74
2017-07-18T18:45:02.980Z,94425.94
2017-07-18T18:47:31.312Z,94414.06
2017-07-18T18:49:59.124Z,94412.25
2017-07-18T18:52:27.088Z,94417.73
2017-07-18T18:54:55.143Z,94416.94
2017-07-18T18:57:23.909Z,94416.70
2017-07-18T18:59:52.796Z,94428.16
2017-07-18T19:02:20.917Z,94442.16
2017-07-18T19:04:48.849Z,94446.93
2017-07-18T19:07:16.599Z,94445.36
2017-07-18T19:09:44.614Z,94446.23
2017-07-18T19:12:13.460Z,94465.44
2017-07-18T19:14:41.988Z,94465.64
2017-07-18T19:17:09.738Z,94467.75
2017-07-18T19:19:37.618Z,94472.39
2017-07-18T19:22:05.744Z,94487.67
2017-07-18T19:24:33.629Z,94491.41
2017-07-18T19:27:01.664Z,94487.47
2017-07-18T19:29:29.468Z,94486.35
2017-07-18T19:31:57.575Z,94476.00
2017-07-18T19:34:25.376Z,94489.12
2017-07-18T19:36:53.439Z,94482.87
2017-07-18T19:39:22.398Z,94489.05
2017-07-18T19:41:50.278Z,94477.20
2017-07-18T19:44:18.218Z,94478.03
2017-07-18T19:46:46.097Z,94476.52
2017-07-18T19:49:13.901Z,94469.27
2017-07-18T19:51:41.643Z,94464.62
2017-07-18T19:54:09.398Z,94461.81
2017-07-18T19:56:37.115Z,94464.15
2017-07-18T19:59:04.930Z,94443.88
2017-07-18T20:01:32.645Z,94453.05
2017-07-18T20:04:00.407Z,94455.55
2017-07-18T20:06:28.176Z,94435.72
2017-07-18T20:08:55.947Z,94459.61
2017-07-18T20:11:23.730Z,94451.45
2017-07-18T20:13:51.518Z,94448.22
2017-07-18T20:16:20.344Z,94455.44
2017-07-18T20:18:48.152Z,94447.07
2017-07-18T20:21:16.413Z,94446.01
2017-07-18T20:23:44.223Z,94452.00
2017-07-18T20:26:11.922Z,94447.70
2017-07-18T20:28:39.884Z,94442.30
2017-07-18T20:31:07.704Z,94443.61
2017-07-18T20:33:35.497Z,94445.73
2017-07-18T20:36:03.260Z,94453.90
2017-07-18T20:38:31.067Z,94458.78
2017-07-18T20:40:58.876Z,94465.91
2017-07-18T20:43:26.817Z,94469.34
2017-07-18T20:45:54.533Z,94470.02
2017-07-18T20:48:22.291Z,94475.03
2017-07-18T20:50:50.089Z,94474.11
2017-07-18T20:53:17.847Z,94476.61
2017-07-18T20:55:45.616Z,94474.87
2017-07-18T20:58:13.409Z,94468.58
2017-07-18T21:00:41.218Z,94463.17
2017-07-18T21:03:08.924Z,94472.26
2017-07-18T21:05:36.679Z,94458.29
2017-07-18T21:08:04.430Z,94452.63
2017-07-18T21:10:32.358Z,94449.59
2017-07-18T21:13:00.046Z,94443.02
2017-07-18T21:15:27.856Z,94442.90
2017-07-18T21:17:55.630Z,94433.55
2017-07-18T21:20:23.326Z,94437.36
2017-07-18T21:22:51.092Z,94432.48
2017-07-18T21:25:18.860Z,94432.88
2017-07-18T21:27:46.739Z,94428.02
2017-07-18T21:30:14.563Z,94429.33
2017-07-18T21:32:42.284Z,94441.59
2017-07-18T21:35:10.046Z,94440.41
2017-07-18T21:37:37.902Z,94442.89
2017-07-18T21:40:05.606Z,94445.00
2017-07-18T21:42:33.315Z,94441.98
2017-07-18T21:45:01.096Z,94438.17
2017-07-18T21:47:28.845Z,94441.58
2017-07-18T21:49:56.619Z,94432.75
2017-07-18T21:52:24.430Z,94430.13
2017-07-18T21:54:52.947Z,94433.55
2017-07-18T21:57:20.809Z,94429.06
2017-07-18T21:59:49.506Z,94428.89
2017-07-18T22:02:17.256Z,94427.33
2017-07-18T22:04:45.054Z,94429.30
2017-07-18T22:07:12.745Z,94430.36
2017-07-18T22:09:40.502Z,94436.27
2017-07-18T22:12:08.206Z,94438.63
2017-07-18T22:14:35.969Z,94437.05
2017-07-18T22:17:03.725Z,94437.28
2017-07-18T22:19:31.498Z,94445.03
2017-07-18T22:21:59.267Z,94438.08
2017-07-18T22:24:27.046Z,94436.64
2017-07-18T22:26:54.829Z,94438.22
2017-07-18T22:29:22.625Z,94433.05
2017-07-18T22:31:50.324Z,94433.44
2017-07-18T22:34:18.032Z,94446.58
2017-07-18T22:36:45.778Z,94443.91
2017-07-18T22:39:13.498Z,94446.45
2017-07-18T22:41:41.247Z,94452.98
2017-07-18T22:44:09.059Z,94445.51
2017-07-18T22:46:36.777Z,94440.88
2017-07-18T22:49:04.470Z,94443.67
2017-07-18T22:51:32.215Z,94447.84
2017-07-18T22:54:00.307Z,94446.92
2017-07-18T22:56:28.099Z,94444.83
2017-07-18T22:58:55.852Z,94440.89
2017-07-18T23:01:23.589Z,94441.66
2017-07-18T23:03:51.410Z,94433.61
2017-07-18T23:06:19.111Z,94433.88
2017-07-18T23:08:46.868Z,94434.36
2017-07-18T23:11:14.575Z,94434.72
2017-07-18T23:13:42.336Z,94426.79
2017-07-18T23:16:10.147Z,94432.88
2017-07-18T23:18:37.878Z,94433.79
2017-07-18T23:21:05.698Z,94432.53
2017-07-18T23:23:33.398Z,94426.71
2017-07-18T23:26:01.129Z,94422.81
2017-07-18T23:28:28.890Z,94419.45
2017-07-18T23:30:56.614Z,94418.36
2017-07-18T23:33:24.308Z,94421.69
2017-07-18T23:35:52.044Z,94418.89
2017-07-18T23:38:19.746Z,94424.06
2017-07-18T23:40:47.454Z,94423.97
2017-07-18T23:43:15.181Z,94424.63
2017-07-18T23:45:42.927Z,94422.27
2017-07-18T23:48:10.769Z,94424.84
2017-07-18T23:50:38.498Z,94417.70
2017-07-18T23:53:06.179Z,94420.27
2017-07-18T23:55:33.898Z,94420.36
2017-07-18T23:58:01.581Z,94421.13
